createdAt,value
2023-01-19T00:00:28.585Z,100.00
2023-01-19T00:03:31.274Z,100.00
2023-01-19T00:06:33.538Z,100.00
2023-01-19T00:09:38.266Z,100.00
2023-01-19T00:12:40.686Z,100.00
2023-01-19T00:15:43.698Z,100.00
2023-01-19T00:18:46.421Z,100.00
2023-01-19T00:21:48.969Z,100.00
2023-01-19T00:24:51.145Z,100.00
2023-01-19T00:27:54.292Z,100.00
2023-01-19T00:30:56.501Z,100.00
2023-01-19T00:33:58.973Z,100.00
2023-01-19T00:37:03.066Z,100.00
2023-01-19T00:40:06.214Z,100.00
2023-01-19T00:43:08.474Z,100.00
2023-01-19T00:46:11.097Z,100.00
2023-01-19T00:49:13.506Z,100.00
2023-01-19T00:52:16.213Z,100.00
2023-01-19T00:55:18.599Z,100.00
2023-01-19T00:58:23.135Z,100.00
2023-01-19T01:01:45.361Z,100.00
2023-01-19T01:04:48.058Z,100.00
2023-01-19T01:07:50.823Z,100.00
2023-01-19T01:10:54.474Z,100.00
2023-01-19T01:13:56.700Z,100.00
2023-01-19T01:17:00.643Z,100.00
2023-01-19T01:20:04.874Z,100.00
2023-01-19T01:23:07.458Z,100.00
2023-01-19T01:26:09.979Z,100.00
2023-01-19T01:29:12.779Z,100.00
2023-01-19T01:32:15.829Z,100.00
2023-01-19T01:35:18.645Z,100.00
2023-01-19T01:38:20.784Z,100.00
2023-01-19T01:41:25.459Z,100.00
2023-01-19T01:44:49.665Z,100.00
2023-01-19T01:47:55.414Z,100.00
2023-01-19T01:51:20.749Z,100.00
2023-01-19T01:54:33.517Z,100.00
2023-01-19T01:57:38.919Z,100.00
2023-01-19T02:01:00.128Z,100.00
2023-01-19T02:04:02.676Z,100.00
2023-01-19T02:07:23.639Z,100.00
2023-01-19T02:10:45.091Z,100.00
2023-01-19T02:13:47.753Z,100.00
2023-01-19T02:16:50.438Z,100.00
2023-01-19T02:19:53.084Z,100.00
2023-01-19T02:23:01.667Z,100.00
2023-01-19T02:26:05.709Z,100.00
2023-01-19T02:29:13.111Z,100.00
2023-01-19T02:32:15.443Z,100.00
2023-01-19T02:35:18.985Z,100.00
2023-01-19T02:38:21.661Z,100.00
2023-01-19T02:41:28.784Z,100.00
2023-01-19T02:44:32.890Z,100.00
2023-01-19T02:47:53.459Z,100.00
2023-01-19T02:51:10.835Z,100.00
2023-01-19T02:54:35.980Z,100.00
2023-01-19T02:57:52.762Z,100.00
2023-01-19T03:01:19.688Z,100.00
2023-01-19T03:04:37.269Z,100.00
2023-01-19T03:07:57.678Z,100.00
2023-01-19T03:11:12.827Z,100.00
2023-01-19T03:14:21.771Z,100.00
2023-01-19T03:17:26.141Z,100.00
2023-01-19T03:20:29.159Z,100.00
2023-01-19T03:23:33.970Z,100.00
2023-01-19T03:26:43.947Z,100.00
2023-01-19T03:29:52.112Z,100.00
2023-01-19T03:33:00.283Z,100.00
2023-01-19T03:36:13.706Z,100.00
2023-01-19T03:39:21.726Z,100.00
2023-01-19T03:42:25.419Z,100.00
2023-01-19T03:45:28.091Z,100.00
2023-01-19T03:48:31.325Z,100.00
2023-01-19T03:51:38.966Z,100.00
2023-01-19T03:54:41.359Z,100.00
2023-01-19T03:57:43.875Z,100.00
2023-01-19T04:00:46.010Z,100.00
2023-01-19T04:03:50.558Z,100.00
2023-01-19T04:06:52.755Z,100.00
2023-01-19T04:09:55.212Z,100.00
2023-01-19T04:13:02.027Z,100.00
2023-01-19T04:16:05.587Z,100.00
2023-01-19T04:19:07.892Z,100.00
2023-01-19T04:22:10.539Z,100.00
2023-01-19T04:25:12.771Z,100.00
2023-01-19T04:28:15.643Z,100.00
2023-01-19T04:31:19.365Z,100.00
2023-01-19T04:34:21.854Z,100.00
2023-01-19T04:37:24.039Z,100.00
2023-01-19T04:40:26.478Z,100.00
2023-01-19T04:43:29.366Z,100.00
2023-01-19T04:46:31.893Z,100.00
2023-01-19T04:49:34.088Z,100.00
2023-01-19T04:52:36.804Z,100.00
2023-01-19T04:55:39.297Z,100.00
2023-01-19T04:58:41.942Z,100.00
2023-01-19T05:01:44.227Z,100.00
2023-01-19T05:04:46.732Z,100.00
2023-01-19T05:07:49.053Z,100.00
2023-01-19T05:10:51.735Z,100.00
2023-01-19T05:13:54.031Z,100.00
2023-01-19T05:16:56.583Z,100.00
2023-01-19T05:19:58.808Z,100.00
2023-01-19T05:23:01.718Z,100.00
2023-01-19T05:26:04.455Z,100.00
2023-01-19T05:29:08.164Z,100.00
2023-01-19T05:32:10.654Z,100.00
2023-01-19T05:35:20.203Z,100.00
2023-01-19T05:38:35.411Z,100.00
2023-01-19T05:41:38.411Z,100.00
2023-01-19T05:44:40.815Z,100.00
2023-01-19T05:47:43.504Z,100.00
2023-01-19T05:50:45.751Z,100.00
2023-01-19T05:53:48.175Z,100.00
2023-01-19T05:56:50.519Z,100.00
2023-01-19T05:59:52.998Z,100.00
2023-01-19T06:02:55.717Z,100.00
2023-01-19T06:05:58.807Z,100.00
2023-01-19T06:09:01.046Z,100.00
2023-01-19T06:12:03.887Z,100.00
2023-01-19T06:15:06.925Z,100.00
2023-01-19T06:18:09.603Z,100.00
2023-01-19T06:21:14.283Z,100.00
2023-01-19T06:24:16.936Z,100.00
2023-01-19T06:27:19.241Z,100.00
2023-01-19T06:30:21.986Z,100.00
2023-01-19T06:33:25.139Z,100.00
2023-01-19T06:36:27.836Z,100.00
2023-01-19T06:39:30.221Z,100.00
2023-01-19T06:42:33.560Z,100.00
2023-01-19T06:45:35.788Z,100.00
2023-01-19T06:48:38.427Z,100.00
2023-01-19T06:51:40.597Z,100.00
2023-01-19T06:54:45.439Z,100.00
2023-01-19T06:57:47.838Z,100.00
2023-01-19T07:00:51.668Z,100.00
2023-01-19T07:03:55.141Z,100.00
2023-01-19T07:06:58.036Z,100.00
2023-01-19T07:10:00.422Z,100.00
2023-01-19T07:13:03.392Z,100.00
2023-01-19T07:16:08.400Z,100.00
2023-01-19T07:19:11.152Z,100.00
2023-01-19T07:22:13.898Z,100.00
2023-01-19T07:25:16.630Z,100.00
2023-01-19T07:28:19.108Z,100.00
2023-01-19T07:31:26.244Z,100.00
2023-01-19T07:34:29.858Z,100.00
2023-01-19T07:37:32.480Z,100.00
2023-01-19T07:40:35.075Z,100.00
2023-01-19T07:43:37.767Z,100.00
2023-01-19T07:46:40.472Z,100.00
2023-01-19T07:49:43.001Z,100.00
2023-01-19T07:52:45.665Z,100.00
2023-01-19T07:55:54.510Z,100.00
2023-01-19T07:58:56.802Z,100.00
2023-01-19T08:01:59.833Z,100.00
2023-01-19T08:05:02.889Z,100.00
2023-01-19T08:08:05.582Z,100.00
2023-01-19T08:11:08.472Z,100.00
2023-01-19T08:14:10.656Z,100.00
2023-01-19T08:17:14.049Z,100.00
2023-01-19T08:20:16.559Z,100.00
2023-01-19T08:23:19.728Z,100.00
2023-01-19T08:26:27.992Z,100.00
2023-01-19T08:29:32.086Z,100.00
2023-01-19T08:32:34.277Z,100.00
2023-01-19T08:35:41.001Z,100.00
2023-01-19T08:38:45.383Z,100.00
2023-01-19T08:41:48.291Z,100.00
2023-01-19T08:44:58.058Z,99.87
2023-01-19T08:48:02.147Z,100.00
2023-01-19T08:51:04.467Z,100.00
2023-01-19T08:54:07.044Z,100.00
2023-01-19T08:57:09.272Z,100.00
2023-01-19T09:00:12.743Z,100.00
2023-01-19T09:03:15.096Z,100.00
2023-01-19T09:06:19.243Z,100.00
2023-01-19T09:09:21.628Z,100.00
2023-01-19T09:12:24.191Z,100.00
2023-01-19T09:15:26.437Z,100.00
2023-01-19T09:18:29.921Z,100.00
2023-01-19T09:21:32.138Z,100.00
2023-01-19T09:24:35.011Z,100.00
2023-01-19T09:27:37.292Z,100.00
2023-01-19T09:30:41.701Z,100.00
2023-01-19T09:33:43.958Z,100.00
2023-01-19T09:36:47.197Z,100.00
2023-01-19T09:39:49.363Z,100.00
2023-01-19T09:43:31.999Z,100.00
2023-01-19T09:46:42.191Z,100.00
2023-01-19T09:49:51.131Z,100.00
2023-01-19T09:53:03.114Z,100.00
2023-01-19T09:56:11.098Z,100.00
2023-01-19T09:59:25.423Z,100.00
2023-01-19T10:02:44.920Z,100.00
2023-01-19T10:06:01.284Z,100.00
2023-01-19T10:09:22.140Z,100.00
2023-01-19T10:12:35.673Z,100.00
2023-01-19T10:15:55.928Z,100.00
2023-01-19T10:19:12.417Z,100.00
2023-01-19T10:22:27.576Z,100.00
2023-01-19T10:25:30.511Z,100.00
2023-01-19T10:28:33.437Z,100.00
2023-01-19T10:31:39.601Z,100.00
2023-01-19T10:34:41.847Z,100.00
2023-01-19T10:37:44.847Z,100.00
2023-01-19T10:40:57.017Z,100.00
2023-01-19T10:44:02.305Z,100.00
2023-01-19T10:47:14.359Z,100.00
2023-01-19T10:50:37.039Z,100.00
2023-01-19T10:53:42.692Z,100.00
2023-01-19T10:56:52.430Z,100.00
2023-01-19T10:59:54.840Z,100.00
2023-01-19T11:02:57.573Z,100.00
2023-01-19T11:06:21.418Z,100.00
2023-01-19T11:09:23.928Z,100.00
2023-01-19T11:12:26.128Z,100.00
2023-01-19T11:15:35.905Z,100.00
2023-01-19T11:18:39.864Z,100.00
2023-01-19T11:21:42.400Z,100.00
2023-01-19T11:24:44.634Z,100.00
2023-01-19T11:27:51.770Z,100.00
2023-01-19T11:31:02.287Z,100.00
2023-01-19T11:34:21.917Z,100.00
2023-01-19T11:37:30.895Z,100.00
2023-01-19T11:40:35.727Z,100.00
2023-01-19T11:43:48.684Z,100.00
2023-01-19T11:47:00.987Z,100.00
2023-01-19T11:50:23.521Z,100.00
2023-01-19T11:53:33.165Z,100.00
2023-01-19T11:56:35.342Z,100.00
2023-01-19T11:59:38.283Z,100.00
2023-01-19T12:02:46.152Z,100.00
2023-01-19T12:05:55.336Z,100.00
2023-01-19T12:09:00.369Z,100.00
2023-01-19T12:12:10.481Z,100.00
2023-01-19T12:15:35.022Z,100.00
2023-01-19T12:19:02.632Z,100.00
2023-01-19T12:22:06.116Z,100.00
2023-01-19T12:25:34.998Z,100.00
2023-01-19T12:28:41.407Z,100.00
2023-01-19T12:31:44.287Z,100.00
2023-01-19T12:34:55.812Z,100.00
2023-01-19T12:38:00.407Z,100.00
2023-01-19T12:41:17.751Z,100.00
2023-01-19T12:44:23.987Z,100.00
2023-01-19T12:47:27.160Z,100.00
2023-01-19T12:50:37.220Z,100.00
2023-01-19T12:53:39.790Z,100.00
2023-01-19T12:56:44.975Z,100.00
2023-01-19T12:59:47.489Z,100.00
2023-01-19T13:02:51.865Z,100.00
2023-01-19T13:05:56.767Z,100.00
2023-01-19T13:09:00.591Z,100.00
2023-01-19T13:12:32.327Z,100.00
2023-01-19T13:15:36.376Z,100.00
2023-01-19T13:18:41.408Z,100.00
2023-01-19T13:21:48.538Z,100.00
2023-01-19T13:25:13.849Z,100.00
2023-01-19T13:28:19.234Z,100.00
2023-01-19T13:31:22.780Z,100.00
2023-01-19T13:34:28.022Z,100.00
2023-01-19T13:37:40.441Z,100.00
2023-01-19T13:40:44.327Z,100.00
2023-01-19T13:43:48.292Z,100.00
2023-01-19T13:46:52.492Z,100.00
2023-01-19T13:49:58.979Z,100.00
2023-01-19T13:53:02.777Z,100.00
2023-01-19T13:56:06.343Z,100.00
2023-01-19T13:59:12.970Z,100.00
2023-01-19T14:02:17.895Z,100.00
2023-01-19T14:05:34.082Z,100.00
2023-01-19T14:08:36.580Z,100.00
2023-01-19T14:11:39.276Z,100.00
2023-01-19T14:14:43.402Z,100.00
2023-01-19T14:18:21.004Z,100.00
2023-01-19T14:21:23.234Z,100.00
2023-01-19T14:24:29.745Z,100.00
2023-01-19T14:27:32.113Z,100.00
2023-01-19T14:30:36.751Z,100.00
2023-01-19T14:33:46.022Z,100.00
2023-01-19T14:36:51.579Z,100.00
2023-01-19T14:39:57.065Z,100.00
2023-01-19T14:43:06.258Z,100.00
2023-01-19T14:46:14.739Z,100.00
2023-01-19T14:49:30.421Z,100.00
2023-01-19T14:52:38.178Z,100.00
2023-01-19T14:55:46.457Z,100.00
2023-01-19T14:58:48.757Z,100.00
2023-01-19T15:01:51.454Z,100.00
2023-01-19T15:04:55.378Z,100.00
2023-01-19T15:08:00.571Z,100.00
2023-01-19T15:11:29.304Z,100.00
2023-01-19T15:14:32.078Z,100.00
2023-01-19T15:17:35.183Z,100.00
2023-01-19T15:20:37.682Z,100.00
2023-01-19T15:23:40.260Z,100.00
2023-01-19T15:26:43.251Z,100.00
2023-01-19T15:29:46.090Z,100.00
2023-01-19T15:32:48.861Z,100.00
2023-01-19T15:35:51.992Z,100.00
2023-01-19T15:38:55.803Z,100.00
2023-01-19T15:41:58.324Z,100.00
2023-01-19T15:45:00.825Z,100.00
2023-01-19T15:48:11.095Z,100.00
2023-01-19T15:51:15.667Z,100.00
2023-01-19T15:54:18.619Z,100.00
2023-01-19T15:57:21.077Z,99.94
2023-01-19T16:00:23.465Z,100.00
2023-01-19T16:03:26.366Z,100.00
2023-01-19T16:06:29.751Z,100.00
2023-01-19T16:09:32.191Z,100.00
2023-01-19T16:12:34.416Z,100.00
2023-01-19T16:15:38.270Z,100.00
2023-01-19T16:18:40.464Z,100.00
2023-01-19T16:21:43.980Z,98.15
2023-01-19T16:24:46.095Z,100.00
2023-01-19T16:27:48.489Z,100.00
2023-01-19T16:30:51.712Z,100.00
2023-01-19T16:33:54.340Z,100.00
2023-01-19T16:36:56.560Z,100.00
2023-01-19T16:39:59.052Z,100.00
2023-01-19T16:43:01.254Z,100.00
2023-01-19T16:46:04.409Z,100.00
2023-01-19T16:49:13.496Z,100.00
2023-01-19T16:52:16.088Z,100.00
2023-01-19T16:55:18.357Z,100.00
2023-01-19T16:58:20.857Z,100.00
2023-01-19T17:01:24.700Z,100.00
2023-01-19T17:04:27.356Z,100.00
2023-01-19T17:07:29.545Z,100.00
2023-01-19T17:10:36.347Z,100.00
2023-01-19T17:13:39.415Z,100.00
2023-01-19T17:16:43.343Z,100.00
2023-01-19T17:19:45.619Z,99.28
2023-01-19T17:22:48.170Z,99.14
2023-01-19T17:25:54.382Z,99.09
2023-01-19T17:29:07.981Z,98.34
2023-01-19T17:32:10.138Z,97.86
2023-01-19T17:35:12.578Z,97.46
2023-01-19T17:38:14.951Z,98.67
2023-01-19T17:41:23.764Z,97.79
2023-01-19T17:44:25.969Z,98.46
2023-01-19T17:47:28.372Z,98.91
2023-01-19T17:50:32.521Z,100.00
2023-01-19T17:53:39.628Z,100.00
2023-01-19T17:56:41.835Z,100.00
2023-01-19T17:59:44.410Z,100.00
2023-01-19T18:02:49.852Z,100.00
2023-01-19T18:05:55.635Z,100.00
2023-01-19T18:08:59.374Z,99.38
2023-01-19T18:12:01.894Z,99.30
2023-01-19T18:15:06.202Z,100.00
2023-01-19T18:18:08.626Z,99.22
2023-01-19T18:21:13.821Z,100.00
2023-01-19T18:24:16.424Z,100.00
2023-01-19T18:27:18.812Z,98.51
2023-01-19T18:30:22.394Z,97.34
2023-01-19T18:33:25.429Z,98.14
2023-01-19T18:36:27.962Z,97.50
2023-01-19T18:39:31.087Z,99.44
2023-01-19T18:42:34.239Z,96.73
2023-01-19T18:45:38.162Z,97.05
2023-01-19T18:48:40.609Z,97.79
2023-01-19T18:51:42.766Z,99.73
2023-01-19T18:54:45.197Z,100.00
2023-01-19T18:57:47.435Z,100.00
2023-01-19T19:00:50.432Z,100.00
2023-01-19T19:03:54.100Z,100.00
2023-01-19T19:06:56.796Z,100.00
2023-01-19T19:09:58.994Z,100.00
2023-01-19T19:13:01.916Z,100.00
2023-01-19T19:16:08.653Z,100.00
2023-01-19T19:19:15.156Z,100.00
2023-01-19T19:22:17.282Z,100.00
2023-01-19T19:25:19.767Z,100.00
2023-01-19T19:28:21.942Z,99.08
2023-01-19T19:31:26.843Z,98.88
2023-01-19T19:34:29.184Z,99.63
2023-01-19T19:37:32.004Z,100.00
2023-01-19T19:40:34.130Z,100.00
2023-01-19T19:43:37.465Z,100.00
2023-01-19T19:46:41.194Z,100.00
2023-01-19T19:49:43.681Z,100.00
2023-01-19T19:52:45.946Z,100.00
2023-01-19T19:55:59.484Z,100.00
2023-01-19T19:59:01.676Z,100.00
2023-01-19T20:02:06.068Z,100.00
2023-01-19T20:05:08.944Z,99.59
2023-01-19T20:08:11.345Z,100.00
2023-01-19T20:11:17.294Z,100.00
2023-01-19T20:14:20.167Z,99.64
2023-01-19T20:17:23.211Z,98.97
2023-01-19T20:20:25.622Z,99.19
2023-01-19T20:23:28.053Z,98.99
2023-01-19T20:26:33.649Z,99.51
2023-01-19T20:29:36.227Z,99.04
2023-01-19T20:32:41.531Z,99.98
2023-01-19T20:35:44.134Z,99.92
2023-01-19T20:38:46.305Z,100.00
2023-01-19T20:41:51.215Z,98.62
2023-01-19T20:44:55.599Z,99.52
2023-01-19T20:47:58.106Z,99.52
2023-01-19T20:51:09.572Z,98.89
2023-01-19T20:54:13.781Z,97.07
2023-01-19T20:57:15.991Z,97.68
2023-01-19T21:00:18.814Z,97.34
2023-01-19T21:03:21.026Z,96.91
2023-01-19T21:06:23.695Z,97.04
2023-01-19T21:09:25.889Z,98.00
2023-01-19T21:12:28.432Z,97.22
2023-01-19T21:15:30.560Z,98.23
2023-01-19T21:18:33.187Z,96.92
2023-01-19T21:21:35.375Z,94.85
2023-01-19T21:24:37.876Z,96.69
2023-01-19T21:27:40.165Z,96.07
2023-01-19T21:30:42.697Z,95.92
2023-01-19T21:33:45.135Z,96.38
2023-01-19T21:36:47.581Z,97.16
2023-01-19T21:39:49.700Z,96.15
2023-01-19T21:42:52.855Z,96.61
2023-01-19T21:45:55.131Z,95.42
2023-01-19T21:49:03.126Z,96.38
2023-01-19T21:52:05.504Z,95.11
2023-01-19T21:55:08.493Z,94.44
2023-01-19T21:58:10.767Z,94.53
2023-01-19T22:01:14.091Z,93.32
2023-01-19T22:04:16.633Z,94.14
2023-01-19T22:07:18.831Z,95.39
2023-01-19T22:10:21.579Z,96.18
2023-01-19T22:13:23.821Z,98.25
2023-01-19T22:16:28.222Z,98.22
2023-01-19T22:19:30.519Z,95.88
2023-01-19T22:22:33.323Z,96.39
2023-01-19T22:25:35.522Z,96.40
2023-01-19T22:28:38.215Z,96.05
2023-01-19T22:31:40.783Z,95.24
2023-01-19T22:34:43.291Z,93.40
2023-01-19T22:37:45.438Z,94.03
2023-01-19T22:40:47.933Z,96.08
2023-01-19T22:43:53.524Z,95.10
2023-01-19T22:46:56.314Z,95.23
2023-01-19T22:49:58.479Z,93.88
2023-01-19T22:53:00.966Z,95.33
2023-01-19T22:56:14.776Z,96.57
2023-01-19T22:59:17.204Z,94.80
2023-01-19T23:02:20.914Z,94.03
2023-01-19T23:05:23.630Z,94.87
2023-01-19T23:08:25.835Z,95.27
2023-01-19T23:11:35.604Z,94.39
2023-01-19T23:14:38.144Z,94.48
2023-01-19T23:17:43.395Z,95.07
2023-01-19T23:20:45.509Z,94.99
2023-01-19T23:23:48.212Z,94.06
2023-01-19T23:26:50.920Z,94.31
2023-01-19T23:29:53.474Z,95.61
2023-01-19T23:32:55.691Z,94.94
2023-01-19T23:35:58.134Z,94.81
2023-01-19T23:39:04.156Z,95.43
2023-01-19T23:42:08.202Z,95.39
2023-01-19T23:45:10.788Z,96.75
2023-01-19T23:48:13.393Z,94.95
2023-01-19T23:51:21.751Z,96.74
2023-01-19T23:54:24.319Z,97.55
2023-01-19T23:57:26.818Z,96.87
